sensor_id;sensor_type;location;lat;lon;timestamp;P1;durP1;ratioP1;P2;durP2;ratioP2
83646;SDS011;73609;50.134;14.376;2024-02-26T00:00:05;103.2;;;30.3;;
83646;SDS011;73609;50.134;14.376;2024-02-26T00:02:05;137.3;;;31.7;;
83646;SDS011;73609;50.134;14.376;2024-02-26T00:04:05;99.9;;;30.6;;
83646;SDS011;73609;50.134;14.376;2024-02-26T00:06:05;124.7;;;31.1;;
83646;SDS011;73609;50.134;14.376;2024-02-26T00:08:05;122.3;;;30.3;;
83646;SDS011;73609;50.134;14.376;2024-02-26T00:10:05;82.9;;;28.6;;
83646;SDS011;73609;50.134;14.376;2024-02-26T00:12:05;95.5;;;28.6;;
83646;SDS011;73609;50.134;14.376;2024-02-26T00:14:05;101.5;;;29.5;;
83646;SDS011;73609;50.134;14.376;2024-02-26T00:16:05;105.0;;;30.6;;
83646;SDS011;73609;50.134;14.376;2024-02-26T00:18:05;117.4;;;30.6;;
83646;SDS011;73609;50.134;14.376;2024-02-26T00:20:05;96.7;;;29.2;;
83646;SDS011;73609;50.134;14.376;2024-02-26T00:22:05;105.1;;;29.2;;
83646;SDS011;73609;50.134;14.376;2024-02-26T00:24:05;98.1;;;28.5;;
83646;SDS011;73609;50.134;14.376;2024-02-26T00:26:05;88.6;;;27.1;;
83646;SDS011;73609;50.134;14.376;2024-02-26T00:28:05;74.5;;;27.2;;
83646;SDS011;73609;50.134;14.376;2024-02-26T00:30:05;66.7;;;26.7;;
83646;SDS011;73609;50.134;14.376;2024-02-26T00:32:05;73.9;;;25.2;;
83646;SDS011;73609;50.134;14.376;2024-02-26T00:34:07;62.9;;;25.8;;
83646;SDS011;73609;50.134;14.376;2024-02-26T00:36:05;54.5;;;24.1;;
83646;SDS011;73609;50.134;14.376;2024-02-26T00:38:05;45.1;;;24.0;;
83646;SDS011;73609;50.134;14.376;2024-02-26T00:40:05;60.2;;;24.9;;
83646;SDS011;73609;50.134;14.376;2024-02-26T00:42:05;59.2;;;24.8;;
83646;SDS011;73609;50.134;14.376;2024-02-26T00:44:05;56.5;;;25.0;;
83646;SDS011;73609;50.134;14.376;2024-02-26T00:46:05;63.2;;;25.2;;
83646;SDS011;73609;50.134;14.376;2024-02-26T00:48:05;57.2;;;24.4;;
83646;SDS011;73609;50.134;14.376;2024-02-26T00:50:05;55.0;;;25.1;;
83646;SDS011;73609;50.134;14.376;2024-02-26T00:52:05;46.9;;;24.9;;
83646;SDS011;73609;50.134;14.376;2024-02-26T00:54:05;47.1;;;23.9;;
83646;SDS011;73609;50.134;14.376;2024-02-26T00:56:05;52.0;;;24.8;;
83646;SDS011;73609;50.134;14.376;2024-02-26T00:58:05;42.4;;;24.1;;
83646;SDS011;73609;50.134;14.376;2024-02-26T01:00:05;44.8;;;24.2;;
83646;SDS011;73609;50.134;14.376;2024-02-26T01:04:05;40.5;;;24.2;;
83646;SDS011;73609;50.134;14.376;2024-02-26T01:06:05;46.3;;;24.7;;
83646;SDS011;73609;50.134;14.376;2024-02-26T01:08:05;44.8;;;24.2;;
83646;SDS011;73609;50.134;14.376;2024-02-26T01:10:05;43.4;;;23.7;;
83646;SDS011;73609;50.134;14.376;2024-02-26T01:12:05;41.9;;;23.1;;
83646;SDS011;73609;50.134;14.376;2024-02-26T01:14:05;38.4;;;22.5;;
83646;SDS011;73609;50.134;14.376;2024-02-26T01:16:05;41.6;;;22.8;;
83646;SDS011;73609;50.134;14.376;2024-02-26T01:18:05;39.5;;;23.2;;
83646;SDS011;73609;50.134;14.376;2024-02-26T01:20:05;39.3;;;23.9;;
83646;SDS011;73609;50.134;14.376;2024-02-26T01:22:05;46.2;;;23.1;;
83646;SDS011;73609;50.134;14.376;2024-02-26T01:24:05;40.0;;;22.9;;
83646;SDS011;73609;50.134;14.376;2024-02-26T01:26:05;37.3;;;22.5;;
83646;SDS011;73609;50.134;14.376;2024-02-26T01:28:05;36.0;;;22.9;;
83646;SDS011;73609;50.134;14.376;2024-02-26T01:30:05;39.3;;;22.7;;
83646;SDS011;73609;50.134;14.376;2024-02-26T01:32:05;37.1;;;22.7;;
83646;SDS011;73609;50.134;14.376;2024-02-26T01:34:06;38.4;;;22.7;;
83646;SDS011;73609;50.134;14.376;2024-02-26T01:36:05;35.9;;;23.7;;
83646;SDS011;73609;50.134;14.376;2024-02-26T01:38:05;35.5;;;21.8;;
83646;SDS011;73609;50.134;14.376;2024-02-26T01:40:05;36.8;;;22.9;;
83646;SDS011;73609;50.134;14.376;2024-02-26T01:42:05;36.3;;;22.1;;
83646;SDS011;73609;50.134;14.376;2024-02-26T01:44:05;36.9;;;21.9;;
83646;SDS011;73609;50.134;14.376;2024-02-26T01:46:05;37.8;;;22.9;;
83646;SDS011;73609;50.134;14.376;2024-02-26T01:48:05;38.3;;;23.1;;
83646;SDS011;73609;50.134;14.376;2024-02-26T01:50:05;43.0;;;23.4;;
83646;SDS011;73609;50.134;14.376;2024-02-26T01:52:06;41.5;;;23.0;;
83646;SDS011;73609;50.134;14.376;2024-02-26T01:54:05;38.6;;;23.4;;
83646;SDS011;73609;50.134;14.376;2024-02-26T01:56:05;45.2;;;24.4;;
83646;SDS011;73609;50.134;14.376;2024-02-26T01:58:05;50.9;;;25.5;;
83646;SDS011;73609;50.134;14.376;2024-02-26T02:00:05;60.0;;;24.8;;
83646;SDS011;73609;50.134;14.376;2024-02-26T02:02:05;46.9;;;25.4;;
83646;SDS011;73609;50.134;14.376;2024-02-26T02:04:05;53.6;;;24.6;;
83646;SDS011;73609;50.134;14.376;2024-02-26T02:06:05;55.3;;;24.0;;
83646;SDS011;73609;50.134;14.376;2024-02-26T02:08:05;46.6;;;23.6;;
83646;SDS011;73609;50.134;14.376;2024-02-26T02:10:05;47.0;;;23.8;;
83646;SDS011;73609;50.134;14.376;2024-02-26T02:12:05;52.4;;;24.2;;
83646;SDS011;73609;50.134;14.376;2024-02-26T02:14:05;69.7;;;24.3;;
83646;SDS011;73609;50.134;14.376;2024-02-26T02:16:05;48.7;;;24.8;;
83646;SDS011;73609;50.134;14.376;2024-02-26T02:18:05;47.4;;;24.7;;
83646;SDS011;73609;50.134;14.376;2024-02-26T02:20:09;45.8;;;22.8;;
83646;SDS011;73609;50.134;14.376;2024-02-26T02:22:05;50.2;;;24.0;;
83646;SDS011;73609;50.134;14.376;2024-02-26T02:24:05;43.1;;;23.3;;
83646;SDS011;73609;50.134;14.376;2024-02-26T02:26:05;39.7;;;23.0;;
83646;SDS011;73609;50.134;14.376;2024-02-26T02:28:05;38.6;;;22.1;;
83646;SDS011;73609;50.134;14.376;2024-02-26T02:30:05;50.1;;;23.8;;
83646;SDS011;73609;50.134;14.376;2024-02-26T02:32:05;36.7;;;22.3;;
83646;SDS011;73609;50.134;14.376;2024-02-26T02:34:05;44.6;;;22.9;;
83646;SDS011;73609;50.134;14.376;2024-02-26T02:36:05;51.0;;;23.1;;
83646;SDS011;73609;50.134;14.376;2024-02-26T02:38:05;54.3;;;23.7;;
83646;SDS011;73609;50.134;14.376;2024-02-26T02:40:05;76.6;;;22.9;;
83646;SDS011;73609;50.134;14.376;2024-02-26T02:42:05;87.3;;;22.9;;
83646;SDS011;73609;50.134;14.376;2024-02-26T02:44:05;71.2;;;22.8;;
83646;SDS011;73609;50.134;14.376;2024-02-26T02:46:06;53.4;;;22.7;;
83646;SDS011;73609;50.134;14.376;2024-02-26T02:48:05;66.0;;;25.3;;
83646;SDS011;73609;50.134;14.376;2024-02-26T02:50:05;61.2;;;24.3;;
83646;SDS011;73609;50.134;14.376;2024-02-26T02:52:05;70.3;;;24.1;;
83646;SDS011;73609;50.134;14.376;2024-02-26T02:54:05;52.1;;;23.6;;
83646;SDS011;73609;50.134;14.376;2024-02-26T02:56:05;75.8;;;22.4;;
83646;SDS011;73609;50.134;14.376;2024-02-26T02:58:05;78.5;;;22.6;;
83646;SDS011;73609;50.134;14.376;2024-02-26T03:00:05;66.9;;;22.7;;
83646;SDS011;73609;50.134;14.376;2024-02-26T03:02:05;68.4;;;23.2;;
83646;SDS011;73609;50.134;14.376;2024-02-26T03:04:05;106.7;;;23.0;;
83646;SDS011;73609;50.134;14.376;2024-02-26T03:06:05;49.6;;;22.0;;
83646;SDS011;73609;50.134;14.376;2024-02-26T03:08:05;93.4;;;22.7;;
83646;SDS011;73609;50.134;14.376;2024-02-26T03:10:06;73.0;;;22.3;;
83646;SDS011;73609;50.134;14.376;2024-02-26T03:12:05;59.7;;;22.7;;
83646;SDS011;73609;50.134;14.376;2024-02-26T03:14:05;68.7;;;22.3;;
83646;SDS011;73609;50.134;14.376;2024-02-26T03:16:05;60.9;;;23.1;;
83646;SDS011;73609;50.134;14.376;2024-02-26T03:18:05;68.2;;;23.4;;
83646;SDS011;73609;50.134;14.376;2024-02-26T03:20:05;39.8;;;21.9;;
83646;SDS011;73609;50.134;14.376;2024-02-26T03:22:06;70.8;;;22.9;;
83646;SDS011;73609;50.134;14.376;2024-02-26T03:24:05;45.4;;;22.3;;
83646;SDS011;73609;50.134;14.376;2024-02-26T03:26:05;60.8;;;22.9;;
83646;SDS011;73609;50.134;14.376;2024-02-26T03:28:05;56.5;;;23.5;;
83646;SDS011;73609;50.134;14.376;2024-02-26T03:30:05;55.4;;;21.9;;
83646;SDS011;73609;50.134;14.376;2024-02-26T03:32:05;49.1;;;21.9;;
83646;SDS011;73609;50.134;14.376;2024-02-26T03:34:05;52.2;;;21.7;;
83646;SDS011;73609;50.134;14.376;2024-02-26T03:36:05;51.8;;;22.0;;
83646;SDS011;73609;50.134;14.376;2024-02-26T03:38:05;61.0;;;21.1;;
83646;SDS011;73609;50.134;14.376;2024-02-26T03:40:05;78.1;;;22.3;;
83646;SDS011;73609;50.134;14.376;2024-02-26T03:42:05;43.4;;;20.6;;
83646;SDS011;73609;50.134;14.376;2024-02-26T03:44:05;61.8;;;21.9;;
83646;SDS011;73609;50.134;14.376;2024-02-26T03:46:08;58.1;;;20.8;;
83646;SDS011;73609;50.134;14.376;2024-02-26T03:48:05;59.1;;;21.0;;
83646;SDS011;73609;50.134;14.376;2024-02-26T03:50:05;37.3;;;21.2;;
83646;SDS011;73609;50.134;14.376;2024-02-26T03:52:05;55.9;;;20.0;;
83646;SDS011;73609;50.134;14.376;2024-02-26T03:54:05;53.4;;;20.9;;
83646;SDS011;73609;50.134;14.376;2024-02-26T03:56:05;43.0;;;19.1;;
83646;SDS011;73609;50.134;14.376;2024-02-26T03:58:06;46.0;;;19.8;;
83646;SDS011;73609;50.134;14.376;2024-02-26T04:00:05;49.9;;;19.2;;
83646;SDS011;73609;50.134;14.376;2024-02-26T04:02:05;45.7;;;19.3;;
83646;SDS011;73609;50.134;14.376;2024-02-26T04:04:05;51.4;;;18.9;;
83646;SDS011;73609;50.134;14.376;2024-02-26T04:06:08;36.5;;;18.4;;
83646;SDS011;73609;50.134;14.376;2024-02-26T04:08:05;46.5;;;17.9;;
83646;SDS011;73609;50.134;14.376;2024-02-26T04:10:08;52.0;;;18.4;;
83646;SDS011;73609;50.134;14.376;2024-02-26T04:12:05;44.8;;;17.9;;
83646;SDS011;73609;50.134;14.376;2024-02-26T04:14:05;46.8;;;18.2;;
83646;SDS011;73609;50.134;14.376;2024-02-26T04:16:05;47.7;;;18.2;;
83646;SDS011;73609;50.134;14.376;2024-02-26T04:18:05;50.0;;;19.2;;
83646;SDS011;73609;50.134;14.376;2024-02-26T04:20:05;43.2;;;18.7;;
83646;SDS011;73609;50.134;14.376;2024-02-26T04:22:05;40.6;;;17.9;;
83646;SDS011;73609;50.134;14.376;2024-02-26T04:24:05;39.0;;;19.9;;
83646;SDS011;73609;50.134;14.376;2024-02-26T04:26:05;47.4;;;19.2;;
83646;SDS011;73609;50.134;14.376;2024-02-26T04:28:05;61.3;;;19.4;;
83646;SDS011;73609;50.134;14.376;2024-02-26T04:30:05;50.9;;;19.7;;
83646;SDS011;73609;50.134;14.376;2024-02-26T04:32:05;49.9;;;19.1;;
83646;SDS011;73609;50.134;14.376;2024-02-26T04:34:05;44.6;;;18.2;;
83646;SDS011;73609;50.134;14.376;2024-02-26T04:36:05;36.7;;;17.9;;
83646;SDS011;73609;50.134;14.376;2024-02-26T04:38:05;48.0;;;18.6;;
83646;SDS011;73609;50.134;14.376;2024-02-26T04:40:05;47.1;;;18.4;;
83646;SDS011;73609;50.134;14.376;2024-02-26T04:42:05;65.0;;;19.5;;
83646;SDS011;73609;50.134;14.376;2024-02-26T04:44:05;37.8;;;19.3;;
83646;SDS011;73609;50.134;14.376;2024-02-26T04:46:05;50.6;;;20.5;;
83646;SDS011;73609;50.134;14.376;2024-02-26T04:48:05;51.6;;;19.5;;
83646;SDS011;73609;50.134;14.376;2024-02-26T04:50:05;49.3;;;18.8;;
83646;SDS011;73609;50.134;14.376;2024-02-26T04:52:05;90.0;;;20.9;;
83646;SDS011;73609;50.134;14.376;2024-02-26T04:54:05;93.3;;;20.2;;
83646;SDS011;73609;50.134;14.376;2024-02-26T04:56:05;55.6;;;20.8;;
83646;SDS011;73609;50.134;14.376;2024-02-26T04:58:05;87.7;;;21.3;;
83646;SDS011;73609;50.134;14.376;2024-02-26T05:00:05;72.4;;;20.1;;
83646;SDS011;73609;50.134;14.376;2024-02-26T05:02:05;97.8;;;20.9;;
83646;SDS011;73609;50.134;14.376;2024-02-26T05:04:05;69.7;;;20.8;;
83646;SDS011;73609;50.134;14.376;2024-02-26T05:06:05;62.4;;;20.5;;
83646;SDS011;73609;50.134;14.376;2024-02-26T05:08:05;76.9;;;20.5;;
83646;SDS011;73609;50.134;14.376;2024-02-26T05:10:05;80.4;;;21.2;;
83646;SDS011;73609;50.134;14.376;2024-02-26T05:12:05;80.1;;;20.4;;
83646;SDS011;73609;50.134;14.376;2024-02-26T05:14:05;87.6;;;20.1;;
83646;SDS011;73609;50.134;14.376;2024-02-26T05:16:05;94.1;;;21.2;;
83646;SDS011;73609;50.134;14.376;2024-02-26T05:18:05;76.5;;;22.2;;
83646;SDS011;73609;50.134;14.376;2024-02-26T05:20:05;53.0;;;21.6;;
83646;SDS011;73609;50.134;14.376;2024-02-26T05:22:06;88.1;;;24.0;;
83646;SDS011;73609;50.134;14.376;2024-02-26T05:24:05;114.7;;;22.4;;
83646;SDS011;73609;50.134;14.376;2024-02-26T05:26:05;92.1;;;21.9;;
83646;SDS011;73609;50.134;14.376;2024-02-26T05:28:05;69.4;;;20.1;;
83646;SDS011;73609;50.134;14.376;2024-02-26T05:30:05;51.5;;;19.9;;
83646;SDS011;73609;50.134;14.376;2024-02-26T05:32:05;74.4;;;20.0;;
83646;SDS011;73609;50.134;14.376;2024-02-26T05:34:05;69.7;;;21.5;;
83646;SDS011;73609;50.134;14.376;2024-02-26T05:36:05;75.9;;;20.4;;
83646;SDS011;73609;50.134;14.376;2024-02-26T05:38:05;61.5;;;19.7;;
83646;SDS011;73609;50.134;14.376;2024-02-26T05:40:05;71.3;;;20.3;;
83646;SDS011;73609;50.134;14.376;2024-02-26T05:42:05;93.8;;;21.0;;
83646;SDS011;73609;50.134;14.376;2024-02-26T05:44:05;67.0;;;22.3;;
83646;SDS011;73609;50.134;14.376;2024-02-26T05:46:05;61.6;;;21.6;;
83646;SDS011;73609;50.134;14.376;2024-02-26T05:48:05;69.6;;;25.5;;
83646;SDS011;73609;50.134;14.376;2024-02-26T05:50:05;49.4;;;20.0;;
83646;SDS011;73609;50.134;14.376;2024-02-26T05:52:05;65.8;;;19.5;;
83646;SDS011;73609;50.134;14.376;2024-02-26T05:54:05;56.7;;;20.2;;
83646;SDS011;73609;50.134;14.376;2024-02-26T05:56:05;89.4;;;25.6;;
83646;SDS011;73609;50.134;14.376;2024-02-26T05:58:05;68.6;;;42.6;;
83646;SDS011;73609;50.134;14.376;2024-02-26T06:00:06;66.4;;;20.9;;
83646;SDS011;73609;50.134;14.376;2024-02-26T06:02:05;52.2;;;21.0;;
83646;SDS011;73609;50.134;14.376;2024-02-26T06:04:05;52.1;;;22.7;;
83646;SDS011;73609;50.134;14.376;2024-02-26T06:06:05;53.3;;;19.6;;
83646;SDS011;73609;50.134;14.376;2024-02-26T06:08:05;66.4;;;19.7;;
83646;SDS011;73609;50.134;14.376;2024-02-26T06:10:05;78.6;;;21.7;;
83646;SDS011;73609;50.134;14.376;2024-02-26T06:12:05;78.3;;;24.4;;
83646;SDS011;73609;50.134;14.376;2024-02-26T06:14:05;39.3;;;21.2;;
83646;SDS011;73609;50.134;14.376;2024-02-26T06:16:05;77.5;;;20.0;;
83646;SDS011;73609;50.134;14.376;2024-02-26T06:18:05;76.1;;;23.0;;
83646;SDS011;73609;50.134;14.376;2024-02-26T06:20:05;86.7;;;25.5;;
83646;SDS011;73609;50.134;14.376;2024-02-26T06:22:05;56.1;;;22.5;;
83646;SDS011;73609;50.134;14.376;2024-02-26T06:24:05;56.2;;;19.9;;
83646;SDS011;73609;50.134;14.376;2024-02-26T06:26:05;88.3;;;20.7;;
83646;SDS011;73609;50.134;14.376;2024-02-26T06:28:05;47.6;;;21.2;;
83646;SDS011;73609;50.134;14.376;2024-02-26T06:30:05;41.2;;;20.2;;
83646;SDS011;73609;50.134;14.376;2024-02-26T06:32:05;52.6;;;19.7;;
83646;SDS011;73609;50.134;14.376;2024-02-26T06:34:05;52.4;;;19.5;;
83646;SDS011;73609;50.134;14.376;2024-02-26T06:36:05;54.6;;;20.1;;
83646;SDS011;73609;50.134;14.376;2024-02-26T06:38:05;53.1;;;20.0;;
83646;SDS011;73609;50.134;14.376;2024-02-26T06:40:05;50.7;;;19.5;;
83646;SDS011;73609;50.134;14.376;2024-02-26T06:42:05;52.0;;;19.6;;
83646;SDS011;73609;50.134;14.376;2024-02-26T06:44:05;54.9;;;19.8;;
83646;SDS011;73609;50.134;14.376;2024-02-26T06:46:05;50.6;;;19.4;;
83646;SDS011;73609;50.134;14.376;2024-02-26T06:48:05;49.1;;;18.5;;
83646;SDS011;73609;50.134;14.376;2024-02-26T06:50:05;69.7;;;20.0;;
83646;SDS011;73609;50.134;14.376;2024-02-26T06:52:05;45.1;;;19.8;;
83646;SDS011;73609;50.134;14.376;2024-02-26T06:54:05;71.6;;;19.5;;
83646;SDS011;73609;50.134;14.376;2024-02-26T06:56:05;52.6;;;20.7;;
83646;SDS011;73609;50.134;14.376;2024-02-26T06:58:05;75.4;;;22.7;;
83646;SDS011;73609;50.134;14.376;2024-02-26T07:00:07;68.3;;;23.2;;
83646;SDS011;73609;50.134;14.376;2024-02-26T07:02:05;58.0;;;23.8;;
83646;SDS011;73609;50.134;14.376;2024-02-26T07:04:05;55.2;;;21.1;;
83646;SDS011;73609;50.134;14.376;2024-02-26T07:06:05;45.5;;;19.5;;
83646;SDS011;73609;50.134;14.376;2024-02-26T07:08:05;60.5;;;20.6;;
83646;SDS011;73609;50.134;14.376;2024-02-26T07:10:05;70.1;;;18.9;;
83646;SDS011;73609;50.134;14.376;2024-02-26T07:12:05;50.8;;;19.0;;
83646;SDS011;73609;50.134;14.376;2024-02-26T07:14:05;53.8;;;21.1;;
83646;SDS011;73609;50.134;14.376;2024-02-26T07:16:05;63.2;;;19.2;;
83646;SDS011;73609;50.134;14.376;2024-02-26T07:18:05;44.5;;;17.7;;
83646;SDS011;73609;50.134;14.376;2024-02-26T07:20:05;46.0;;;18.0;;
83646;SDS011;73609;50.134;14.376;2024-02-26T07:22:05;46.7;;;17.1;;
83646;SDS011;73609;50.134;14.376;2024-02-26T07:24:05;47.8;;;18.2;;
83646;SDS011;73609;50.134;14.376;2024-02-26T07:26:05;34.5;;;17.3;;
83646;SDS011;73609;50.134;14.376;2024-02-26T07:28:05;29.8;;;16.1;;
83646;SDS011;73609;50.134;14.376;2024-02-26T07:30:05;41.3;;;17.0;;
83646;SDS011;73609;50.134;14.376;2024-02-26T07:32:05;30.7;;;16.1;;
83646;SDS011;73609;50.134;14.376;2024-02-26T07:34:05;32.3;;;16.6;;
83646;SDS011;73609;50.134;14.376;2024-02-26T07:36:05;33.4;;;17.9;;
83646;SDS011;73609;50.134;14.376;2024-02-26T07:38:05;38.2;;;16.3;;
83646;SDS011;73609;50.134;14.376;2024-02-26T07:40:05;60.2;;;17.6;;
83646;SDS011;73609;50.134;14.376;2024-02-26T07:42:05;45.8;;;16.8;;
83646;SDS011;73609;50.134;14.376;2024-02-26T07:44:05;30.0;;;16.7;;
83646;SDS011;73609;50.134;14.376;2024-02-26T07:46:05;31.5;;;15.5;;
83646;SDS011;73609;50.134;14.376;2024-02-26T07:48:05;33.6;;;16.2;;
83646;SDS011;73609;50.134;14.376;2024-02-26T07:50:05;32.0;;;16.0;;
83646;SDS011;73609;50.134;14.376;2024-02-26T07:52:05;25.4;;;14.9;;
83646;SDS011;73609;50.134;14.376;2024-02-26T07:54:05;29.5;;;15.0;;
83646;SDS011;73609;50.134;14.376;2024-02-26T07:56:05;27.1;;;14.6;;
83646;SDS011;73609;50.134;14.376;2024-02-26T07:58:05;45.8;;;15.0;;
83646;SDS011;73609;50.134;14.376;2024-02-26T08:00:06;34.6;;;14.9;;
83646;SDS011;73609;50.134;14.376;2024-02-26T08:02:05;32.8;;;14.0;;
83646;SDS011;73609;50.134;14.376;2024-02-26T08:04:05;35.0;;;15.0;;
83646;SDS011;73609;50.134;14.376;2024-02-26T08:06:05;26.7;;;15.5;;
83646;SDS011;73609;50.134;14.376;2024-02-26T08:08:06;26.8;;;15.0;;
83646;SDS011;73609;50.134;14.376;2024-02-26T08:10:05;40.2;;;16.3;;
83646;SDS011;73609;50.134;14.376;2024-02-26T08:12:05;24.9;;;15.6;;
83646;SDS011;73609;50.134;14.376;2024-02-26T08:14:05;27.0;;;15.6;;
83646;SDS011;73609;50.134;14.376;2024-02-26T08:16:05;28.5;;;16.0;;
83646;SDS011;73609;50.134;14.376;2024-02-26T08:18:05;29.7;;;15.4;;
83646;SDS011;73609;50.134;14.376;2024-02-26T08:20:05;30.4;;;16.2;;
83646;SDS011;73609;50.134;14.376;2024-02-26T08:22:05;26.9;;;15.4;;
83646;SDS011;73609;50.134;14.376;2024-02-26T08:24:05;26.3;;;15.9;;
83646;SDS011;73609;50.134;14.376;2024-02-26T08:26:05;29.4;;;16.3;;
83646;SDS011;73609;50.134;14.376;2024-02-26T08:28:05;29.2;;;16.6;;
83646;SDS011;73609;50.134;14.376;2024-02-26T08:30:05;26.4;;;15.9;;
83646;SDS011;73609;50.134;14.376;2024-02-26T08:32:05;33.7;;;16.6;;
83646;SDS011;73609;50.134;14.376;2024-02-26T08:34:05;25.1;;;15.9;;
83646;SDS011;73609;50.134;14.376;2024-02-26T08:36:05;27.2;;;16.2;;
83646;SDS011;73609;50.134;14.376;2024-02-26T08:38:05;25.9;;;16.4;;
83646;SDS011;73609;50.134;14.376;2024-02-26T08:40:05;30.7;;;16.5;;
83646;SDS011;73609;50.134;14.376;2024-02-26T08:42:05;27.6;;;16.3;;
83646;SDS011;73609;50.134;14.376;2024-02-26T08:44:05;26.9;;;16.6;;
83646;SDS011;73609;50.134;14.376;2024-02-26T08:46:08;28.4;;;16.4;;
83646;SDS011;73609;50.134;14.376;2024-02-26T08:48:07;40.0;;;17.4;;
83646;SDS011;73609;50.134;14.376;2024-02-26T08:50:05;28.7;;;15.9;;
83646;SDS011;73609;50.134;14.376;2024-02-26T08:52:05;27.1;;;16.3;;
83646;SDS011;73609;50.134;14.376;2024-02-26T08:54:05;30.1;;;17.7;;
83646;SDS011;73609;50.134;14.376;2024-02-26T08:56:05;29.9;;;16.8;;
83646;SDS011;73609;50.134;14.376;2024-02-26T08:58:05;28.3;;;17.2;;
83646;SDS011;73609;50.134;14.376;2024-02-26T09:00:05;30.3;;;16.6;;
83646;SDS011;73609;50.134;14.376;2024-02-26T09:02:05;28.4;;;16.2;;
83646;SDS011;73609;50.134;14.376;2024-02-26T09:04:05;29.8;;;18.0;;
83646;SDS011;73609;50.134;14.376;2024-02-26T09:06:05;29.2;;;17.5;;
83646;SDS011;73609;50.134;14.376;2024-02-26T09:08:05;29.4;;;16.7;;
83646;SDS011;73609;50.134;14.376;2024-02-26T09:10:05;29.0;;;17.7;;
83646;SDS011;73609;50.134;14.376;2024-02-26T09:12:06;28.5;;;16.5;;
83646;SDS011;73609;50.134;14.376;2024-02-26T09:14:05;29.7;;;17.4;;
83646;SDS011;73609;50.134;14.376;2024-02-26T09:16:05;26.1;;;16.3;;
83646;SDS011;73609;50.134;14.376;2024-02-26T09:18:05;28.0;;;16.6;;
83646;SDS011;73609;50.134;14.376;2024-02-26T09:20:05;29.9;;;16.7;;
83646;SDS011;73609;50.134;14.376;2024-02-26T09:22:05;28.2;;;16.6;;
83646;SDS011;73609;50.134;14.376;2024-02-26T09:24:06;29.3;;;16.9;;
83646;SDS011;73609;50.134;14.376;2024-02-26T09:26:05;29.8;;;16.1;;
83646;SDS011;73609;50.134;14.376;2024-02-26T09:28:05;26.7;;;16.2;;
83646;SDS011;73609;50.134;14.376;2024-02-26T09:30:05;27.0;;;16.6;;
83646;SDS011;73609;50.134;14.376;2024-02-26T09:32:05;27.6;;;16.9;;
83646;SDS011;73609;50.134;14.376;2024-02-26T09:34:05;29.6;;;16.2;;
83646;SDS011;73609;50.134;14.376;2024-02-26T09:36:05;23.9;;;15.2;;
83646;SDS011;73609;50.134;14.376;2024-02-26T09:38:05;27.0;;;15.7;;
83646;SDS011;73609;50.134;14.376;2024-02-26T09:40:05;26.6;;;15.9;;
83646;SDS011;73609;50.134;14.376;2024-02-26T09:42:05;27.7;;;16.1;;
83646;SDS011;73609;50.134;14.376;2024-02-26T09:44:05;28.1;;;16.8;;
83646;SDS011;73609;50.134;14.376;2024-02-26T09:46:05;26.3;;;15.2;;
83646;SDS011;73609;50.134;14.376;2024-02-26T09:48:05;24.3;;;15.3;;
83646;SDS011;73609;50.134;14.376;2024-02-26T09:50:05;27.0;;;15.9;;
83646;SDS011;73609;50.134;14.376;2024-02-26T09:52:05;25.5;;;15.8;;
83646;SDS011;73609;50.134;14.376;2024-02-26T09:54:05;26.1;;;15.3;;
83646;SDS011;73609;50.134;14.376;2024-02-26T09:56:06;25.5;;;16.4;;
83646;SDS011;73609;50.134;14.376;2024-02-26T09:58:05;24.8;;;15.2;;
83646;SDS011;73609;50.134;14.376;2024-02-26T10:00:05;26.4;;;16.4;;
83646;SDS011;73609;50.134;14.376;2024-02-26T10:02:05;25.5;;;15.0;;
83646;SDS011;73609;50.134;14.376;2024-02-26T10:04:05;22.2;;;14.7;;
83646;SDS011;73609;50.134;14.376;2024-02-26T10:06:06;23.8;;;15.0;;
83646;SDS011;73609;50.134;14.376;2024-02-26T10:08:05;23.9;;;15.3;;
83646;SDS011;73609;50.134;14.376;2024-02-26T10:10:05;23.2;;;15.2;;
83646;SDS011;73609;50.134;14.376;2024-02-26T10:12:06;25.2;;;15.7;;
83646;SDS011;73609;50.134;14.376;2024-02-26T10:14:05;24.3;;;14.5;;
83646;SDS011;73609;50.134;14.376;2024-02-26T10:16:05;24.2;;;14.4;;
83646;SDS011;73609;50.134;14.376;2024-02-26T10:18:05;24.0;;;14.6;;
83646;SDS011;73609;50.134;14.376;2024-02-26T10:20:13;24.6;;;15.4;;
83646;SDS011;73609;50.134;14.376;2024-02-26T10:22:05;24.4;;;14.7;;
83646;SDS011;73609;50.134;14.376;2024-02-26T10:24:13;22.4;;;15.2;;
83646;SDS011;73609;50.134;14.376;2024-02-26T10:26:05;24.2;;;15.2;;
83646;SDS011;73609;50.134;14.376;2024-02-26T10:28:05;24.8;;;15.2;;
83646;SDS011;73609;50.134;14.376;2024-02-26T10:30:20;25.9;;;15.6;;
83646;SDS011;73609;50.134;14.376;2024-02-26T10:32:05;24.9;;;16.4;;
83646;SDS011;73609;50.134;14.376;2024-02-26T10:34:05;23.9;;;16.1;;
83646;SDS011;73609;50.134;14.376;2024-02-26T10:36:05;24.6;;;15.7;;
83646;SDS011;73609;50.134;14.376;2024-02-26T10:38:05;24.8;;;15.7;;
83646;SDS011;73609;50.134;14.376;2024-02-26T10:40:05;24.0;;;15.9;;
83646;SDS011;73609;50.134;14.376;2024-02-26T10:42:05;25.2;;;16.0;;
83646;SDS011;73609;50.134;14.376;2024-02-26T10:44:05;24.5;;;15.6;;
83646;SDS011;73609;50.134;14.376;2024-02-26T10:46:05;24.8;;;15.6;;
83646;SDS011;73609;50.134;14.376;2024-02-26T10:48:07;23.6;;;15.4;;
83646;SDS011;73609;50.134;14.376;2024-02-26T10:50:05;23.2;;;15.5;;
83646;SDS011;73609;50.134;14.376;2024-02-26T10:52:05;23.0;;;15.3;;
83646;SDS011;73609;50.134;14.376;2024-02-26T10:54:05;24.8;;;14.9;;
83646;SDS011;73609;50.134;14.376;2024-02-26T10:56:05;24.2;;;14.9;;
83646;SDS011;73609;50.134;14.376;2024-02-26T10:58:05;22.5;;;15.0;;
83646;SDS011;73609;50.134;14.376;2024-02-26T11:00:06;25.8;;;14.8;;
83646;SDS011;73609;50.134;14.376;2024-02-26T11:02:05;23.0;;;15.0;;
83646;SDS011;73609;50.134;14.376;2024-02-26T11:04:05;26.4;;;15.7;;
83646;SDS011;73609;50.134;14.376;2024-02-26T11:06:05;22.3;;;14.0;;
83646;SDS011;73609;50.134;14.376;2024-02-26T11:08:05;23.4;;;14.6;;
83646;SDS011;73609;50.134;14.376;2024-02-26T11:10:05;24.3;;;14.6;;
83646;SDS011;73609;50.134;14.376;2024-02-26T11:12:05;22.1;;;15.3;;
83646;SDS011;73609;50.134;14.376;2024-02-26T11:14:05;24.1;;;15.5;;
83646;SDS011;73609;50.134;14.376;2024-02-26T11:16:05;24.2;;;15.9;;
83646;SDS011;73609;50.134;14.376;2024-02-26T11:18:05;26.4;;;15.7;;
83646;SDS011;73609;50.134;14.376;2024-02-26T11:20:05;26.0;;;15.6;;
83646;SDS011;73609;50.134;14.376;2024-02-26T11:22:05;22.3;;;15.2;;
83646;SDS011;73609;50.134;14.376;2024-02-26T11:24:06;22.3;;;14.9;;
83646;SDS011;73609;50.134;14.376;2024-02-26T11:26:05;21.3;;;14.5;;
83646;SDS011;73609;50.134;14.376;2024-02-26T11:28:06;23.7;;;14.7;;
83646;SDS011;73609;50.134;14.376;2024-02-26T11:30:05;21.5;;;14.4;;
83646;SDS011;73609;50.134;14.376;2024-02-26T11:32:05;23.3;;;15.4;;
83646;SDS011;73609;50.134;14.376;2024-02-26T11:34:06;23.4;;;15.3;;
83646;SDS011;73609;50.134;14.376;2024-02-26T11:36:10;23.0;;;14.8;;
83646;SDS011;73609;50.134;14.376;2024-02-26T11:38:05;22.7;;;14.7;;
83646;SDS011;73609;50.134;14.376;2024-02-26T11:40:05;22.5;;;14.8;;
83646;SDS011;73609;50.134;14.376;2024-02-26T11:42:06;21.2;;;13.9;;
83646;SDS011;73609;50.134;14.376;2024-02-26T11:44:05;21.7;;;14.1;;
83646;SDS011;73609;50.134;14.376;2024-02-26T11:46:05;21.9;;;14.9;;
83646;SDS011;73609;50.134;14.376;2024-02-26T11:48:21;23.8;;;16.0;;
83646;SDS011;73609;50.134;14.376;2024-02-26T11:50:36;23.7;;;14.4;;
83646;SDS011;73609;50.134;14.376;2024-02-26T11:52:07;21.1;;;14.2;;